Time;durP1;ratioP1;P1;durP2;ratioP2;P2;SDS_P1;SDS_P2;PMS_P1;PMS_P2;Temp;Humidity;BMP_temperature;BMP_pressure;BME280_temperature;BME280_humidity;BME280_pressure;Samples;Min_cycle;Max_cycle;Signal;HPM_P1;HPM_P2
2022/11/09 00:01:15;;;;;;;0.00;0.00;;;;;;;;;;5076670;28;20102;-84
2022/11/09 00:03:41;;;;;;;0.00;0.00;;;;;;;;;;5076622;28;20427;-85
2022/11/09 00:06:07;;;;;;;0.00;0.00;;;;;;;;;;5076500;28;20040;-84
2022/11/09 00:08:33;;;;;;;0.00;0.00;;;;;;;;;;5093837;28;20489;-84
2022/11/09 00:11:03;;;;;;;0.00;0.00;;;;;;;;;;5076485;28;20040;-84
2022/11/09 00:13:29;;;;;;;0.00;0.00;;;;;;;;;;5076592;28;20406;-84
2022/11/09 00:16:00;;;;;;;0.00;0.00;;;;;;;;;;5094659;28;20048;-84
2022/11/09 00:18:27;;;;;;;0.00;0.00;;;;;;;;;;5076669;28;20074;-84
2022/11/09 00:20:53;;;;;;;0.00;0.00;;;;;;;;;;5076550;28;20076;-84
2022/11/09 00:23:19;;;;;;;0.00;0.00;;;;;;;;;;5076408;28;20097;-84
2022/11/09 00:25:46;;;;;;;0.00;0.00;;;;;;;;;;5076185;28;20044;-85
2022/11/09 00:28:12;;;;;;;0.00;0.00;;;;;;;;;;5076118;28;20047;-84
2022/11/09 00:30:38;;;;;;;0.00;0.00;;;;;;;;;;5076086;28;20040;-84
2022/11/09 00:33:04;;;;;;;0.00;0.00;;;;;;;;;;5076221;28;20047;-84
2022/11/09 00:35:30;;;;;;;0.00;0.00;;;;;;;;;;5076019;28;20044;-84
2022/11/09 00:37:56;;;;;;;0.00;0.00;;;;;;;;;;5075915;28;20105;-84
2022/11/09 00:40:22;;;;;;;0.00;0.00;;;;;;;;;;5093842;28;20040;-83
2022/11/09 00:42:48;;;;;;;0.00;0.00;;;;;;;;;;5075959;28;20036;-85
2022/11/09 00:45:14;;;;;;;0.00;0.00;;;;;;;;;;5075898;28;20044;-84
2022/11/09 00:47:40;;;;;;;0.00;0.00;;;;;;;;;;5076082;28;20044;-85
2022/11/09 00:50:06;;;;;;;0.00;0.00;;;;;;;;;;5075727;28;20541;-85
2022/11/09 00:52:32;;;;;;;0.00;0.00;;;;;;;;;;5075785;28;20048;-85
2022/11/09 00:54:58;;;;;;;0.00;0.00;;;;;;;;;;5076027;28;20048;-85
2022/11/09 00:57:24;;;;;;;0.00;0.00;;;;;;;;;;5075634;28;20070;-85
2022/11/09 00:59:52;;;;;;;0.00;0.00;;;;;;;;;;5075541;28;20067;-85
2022/11/09 01:02:18;;;;;;;0.00;0.00;;;;;;;;;;5092229;28;20560;-85
2022/11/09 01:04:44;;;;;;;0.00;0.00;;;;;;;;;;5075469;28;20044;-85
2022/11/09 01:07:10;;;;;;;0.00;0.00;;;;;;;;;;5075546;28;20040;-85
2022/11/09 01:09:37;;;;;;;0.00;0.00;;;;;;;;;;5075254;28;20044;-84
2022/11/09 01:12:03;;;;;;;0.00;0.00;;;;;;;;;;5075072;28;20472;-84
2022/11/09 01:14:29;;;;;;;0.00;0.00;;;;;;;;;;5075671;28;20036;-85
2022/11/09 01:16:55;;;;;;;0.00;0.00;;;;;;;;;;5075022;28;20043;-85
2022/11/09 01:19:21;;;;;;;0.00;0.00;;;;;;;;;;5075227;28;20058;-85
2022/11/09 01:21:47;;;;;;;0.00;0.00;;;;;;;;;;5075283;28;20040;-85
2022/11/09 01:24:13;;;;;;;0.00;0.00;;;;;;;;;;5075051;28;20067;-84
2022/11/09 01:26:38;;;;;;;0.00;0.00;;;;;;;;;;5075082;28;20426;-84
2022/11/09 01:29:04;;;;;;;0.00;0.00;;;;;;;;;;5075116;28;20119;-84
2022/11/09 01:31:30;;;;;;;0.00;0.00;;;;;;;;;;5075273;28;20040;-85
2022/11/09 01:33:56;;;;;;;0.00;0.00;;;;;;;;;;5091957;28;20498;-85
2022/11/09 01:36:23;;;;;;;0.00;0.00;;;;;;;;;;5074714;28;20056;-85
2022/11/09 01:38:49;;;;;;;0.00;0.00;;;;;;;;;;5074949;28;20467;-84
2022/11/09 01:41:18;;;;;;;0.00;0.00;;;;;;;;;;5074806;28;20044;-84
2022/11/09 01:43:45;;;;;;;0.00;0.00;;;;;;;;;;5093013;28;20466;-84
2022/11/09 01:46:18;;;;;;;0.00;0.00;;;;;;;;;;5074666;28;20119;-84
2022/11/09 01:48:47;;;;;;;0.00;0.00;;;;;;;;;;5074903;28;20119;-84
2022/11/09 01:51:26;;;;;;;0.00;0.00;;;;;;;;;;5074722;28;20039;-84
2022/11/09 01:53:56;;;;;;;0.00;0.00;;;;;;;;;;5075121;28;20040;-83
2022/11/09 01:56:22;;;;;;;0.00;0.00;;;;;;;;;;5092440;28;20067;-84
2022/11/09 01:58:59;;;;;;;0.00;0.00;;;;;;;;;;5092882;28;20040;-84
2022/11/09 02:01:25;;;;;;;0.00;0.00;;;;;;;;;;5074567;28;20101;-85
2022/11/09 02:03:55;;;;;;;0.25;0.08;;;;;;;;;;5074747;28;20044;-84
2022/11/09 02:06:21;;;;;;;0.00;0.00;;;;;;;;;;5074743;28;20387;-84
2022/11/09 02:08:48;;;;;;;0.00;0.00;;;;;;;;;;5074732;28;20537;-84
2022/11/09 02:11:17;;;;;;;0.00;0.00;;;;;;;;;;5092813;28;20047;-85
2022/11/09 02:13:46;;;;;;;0.00;0.00;;;;;;;;;;5074764;28;20214;-84
2022/11/09 02:16:12;;;;;;;0.00;0.00;;;;;;;;;;5074652;28;20048;-85
2022/11/09 02:18:47;;;;;;;0.00;0.00;;;;;;;;;;5074484;28;20051;-84
2022/11/09 02:21:13;;;;;;;0.00;0.00;;;;;;;;;;5074626;28;20048;-83
2022/11/09 02:23:39;;;;;;;0.00;0.00;;;;;;;;;;5074325;28;20044;-84
2022/11/09 02:26:13;;;;;;;0.00;0.00;;;;;;;;;;5074664;28;20403;-84
2022/11/09 02:28:39;;;;;;;0.00;0.00;;;;;;;;;;5092664;28;20426;-84
2022/11/09 02:31:07;;;;;;;0.00;0.00;;;;;;;;;;5092852;28;20060;-84
2022/11/09 02:33:53;;;;;;;0.00;0.00;;;;;;;;;;5074373;28;20040;-84
2022/11/09 02:36:19;;;;;;;0.00;0.00;;;;;;;;;;5074452;28;20092;-84
2022/11/09 02:38:45;;;;;;;0.00;0.00;;;;;;;;;;5074300;28;20075;-84
2022/11/09 02:41:12;;;;;;;0.00;0.00;;;;;;;;;;5074408;28;20120;-84
2022/11/09 02:43:38;;;;;;;0.00;0.00;;;;;;;;;;5092207;28;20495;-84
2022/11/09 02:46:04;;;;;;;0.00;0.00;;;;;;;;;;5074354;28;20051;-84
2022/11/09 02:48:30;;;;;;;0.00;0.00;;;;;;;;;;5074191;28;20047;-84
2022/11/09 02:50:56;;;;;;;0.00;0.00;;;;;;;;;;5074618;28;20048;-84
2022/11/09 02:53:22;;;;;;;0.00;0.00;;;;;;;;;;5074083;28;20040;-84
2022/11/09 02:55:48;;;;;;;0.00;0.00;;;;;;;;;;5074345;28;20469;-84
2022/11/09 02:58:14;;;;;;;0.00;0.00;;;;;;;;;;5074221;28;20058;-84
2022/11/09 03:00:40;;;;;;;0.00;0.00;;;;;;;;;;5074605;28;20148;-84
2022/11/09 03:03:06;;;;;;;0.00;0.00;;;;;;;;;;5073915;28;20499;-84
2022/11/09 03:05:32;;;;;;;0.00;0.00;;;;;;;;;;5074382;28;20051;-85
2022/11/09 03:08:01;;;;;;;0.00;0.00;;;;;;;;;;5074071;28;20055;-84
2022/11/09 03:10:27;;;;;;;0.00;0.00;;;;;;;;;;5078011;28;20150;-85
2022/11/09 03:12:54;;;;;;;0.00;0.00;;;;;;;;;;5094530;28;20036;-84
2022/11/09 03:15:20;;;;;;;0.00;0.00;;;;;;;;;;5078012;28;20505;-84
2022/11/09 03:17:46;;;;;;;0.00;0.00;;;;;;;;;;5077626;28;20044;-85
2022/11/09 03:20:12;;;;;;;0.00;0.00;;;;;;;;;;5077656;28;20044;-84
2022/11/09 03:22:38;;;;;;;0.00;0.00;;;;;;;;;;5077395;28;20089;-84
2022/11/09 03:25:04;;;;;;;0.00;0.00;;;;;;;;;;5077488;28;20089;-84
2022/11/09 03:27:30;;;;;;;0.00;0.00;;;;;;;;;;5077332;28;20118;-84
2022/11/09 03:29:56;;;;;;;0.00;0.00;;;;;;;;;;5077419;28;20075;-84
2022/11/09 03:32:22;;;;;;;0.00;0.00;;;;;;;;;;5077539;28;20044;-84
2022/11/09 03:34:50;;;;;;;0.00;0.00;;;;;;;;;;5077667;28;20044;-84
2022/11/09 03:37:16;;;;;;;0.00;0.00;;;;;;;;;;5095095;28;20060;-84
2022/11/09 03:39:42;;;;;;;0.00;0.00;;;;;;;;;;5095583;28;20123;-84
2022/11/09 03:42:08;;;;;;;0.00;0.00;;;;;;;;;;5076881;28;20162;-85
2022/11/09 03:44:34;;;;;;;0.00;0.00;;;;;;;;;;5095384;28;20043;-84
2022/11/09 03:47:00;;;;;;;0.00;0.00;;;;;;;;;;5077275;28;20463;-85
2022/11/09 03:49:26;;;;;;;0.00;0.00;;;;;;;;;;5076919;28;20054;-84
2022/11/09 03:51:52;;;;;;;0.00;0.00;;;;;;;;;;5077414;28;20067;-84
2022/11/09 03:54:18;;;;;;;0.00;0.00;;;;;;;;;;5076876;28;20051;-85
2022/11/09 03:56:44;;;;;;;0.00;0.00;;;;;;;;;;5077061;28;20487;-85
2022/11/09 03:59:10;;;;;;;0.00;0.00;;;;;;;;;;5076719;28;20044;-85
2022/11/09 04:01:36;;;;;;;0.00;0.00;;;;;;;;;;5077047;28;20055;-85
2022/11/09 04:04:02;;;;;;;0.00;0.00;;;;;;;;;;5076601;28;20044;-85
2022/11/09 04:06:28;;;;;;;0.00;0.00;;;;;;;;;;5076807;28;20104;-85
2022/11/09 04:08:54;;;;;;;0.00;0.00;;;;;;;;;;5076502;28;20047;-84
2022/11/09 04:11:20;;;;;;;0.00;0.00;;;;;;;;;;5076610;28;20036;-85
2022/11/09 04:13:46;;;;;;;0.00;0.00;;;;;;;;;;5076303;28;20088;-85
2022/11/09 04:16:12;;;;;;;0.00;0.00;;;;;;;;;;5076600;28;20157;-84
2022/11/09 04:18:38;;;;;;;0.00;0.00;;;;;;;;;;5076547;28;20391;-84
2022/11/09 04:21:04;;;;;;;0.00;0.00;;;;;;;;;;5076379;28;20506;-85
2022/11/09 04:23:30;;;;;;;0.00;0.00;;;;;;;;;;5076147;28;20392;-84
2022/11/09 04:25:58;;;;;;;0.00;0.00;;;;;;;;;;5076417;28;20047;-84
2022/11/09 04:28:25;;;;;;;0.00;0.00;;;;;;;;;;5076075;28;20047;-84
2022/11/09 04:30:51;;;;;;;0.00;0.00;;;;;;;;;;5076410;28;20047;-84
2022/11/09 04:33:17;;;;;;;0.00;0.00;;;;;;;;;;5075975;28;20040;-84
2022/11/09 04:35:43;;;;;;;0.00;0.00;;;;;;;;;;5076127;28;20050;-84
2022/11/09 04:38:10;;;;;;;0.00;0.00;;;;;;;;;;5075866;28;20101;-84
2022/11/09 04:40:36;;;;;;;0.00;0.00;;;;;;;;;;5075991;28;20040;-84
2022/11/09 04:43:03;;;;;;;0.00;0.00;;;;;;;;;;5075955;28;20047;-84
2022/11/09 04:45:30;;;;;;;0.00;0.00;;;;;;;;;;5075911;28;20119;-85
2022/11/09 04:47:59;;;;;;;0.00;0.00;;;;;;;;;;5075643;28;20383;-85
2022/11/09 04:50:26;;;;;;;0.00;0.00;;;;;;;;;;5075972;28;20036;-84
2022/11/09 04:52:52;;;;;;;0.00;0.00;;;;;;;;;;5093844;28;20558;-84
2022/11/09 04:55:18;;;;;;;0.00;0.00;;;;;;;;;;5075853;28;20090;-84
2022/11/09 04:57:44;;;;;;;0.00;0.00;;;;;;;;;;5075818;28;20040;-84
2022/11/09 05:00:10;;;;;;;0.00;0.00;;;;;;;;;;5094075;28;20051;-84
2022/11/09 05:02:36;;;;;;;0.00;0.00;;;;;;;;;;5075924;28;20047;-85
2022/11/09 05:05:03;;;;;;;0.00;0.00;;;;;;;;;;5075600;28;20123;-85
2022/11/09 05:07:29;;;;;;;0.00;0.00;;;;;;;;;;5075603;28;20484;-84
2022/11/09 05:09:55;;;;;;;0.00;0.00;;;;;;;;;;5075209;28;20092;-84
2022/11/09 05:12:21;;;;;;;0.00;0.00;;;;;;;;;;5075577;28;20483;-85
2022/11/09 05:14:47;;;;;;;0.00;0.00;;;;;;;;;;5075327;28;20455;-84
2022/11/09 05:17:13;;;;;;;0.00;0.00;;;;;;;;;;5075413;28;20036;-85
2022/11/09 05:19:39;;;;;;;0.00;0.00;;;;;;;;;;5075051;28;20032;-84
2022/11/09 05:24:50;;;;;;;0.00;0.00;;;;;;;;;;5108954;28;20044;-84
2022/11/09 05:27:16;;;;;;;0.00;0.00;;;;;;;;;;5075226;28;20087;-85
2022/11/09 05:29:42;;;;;;;0.00;0.00;;;;;;;;;;5075023;28;20047;-85
2022/11/09 05:32:08;;;;;;;0.00;0.00;;;;;;;;;;5074775;28;20040;-85
2022/11/09 05:34:34;;;;;;;0.00;0.00;;;;;;;;;;5074948;28;20051;-85
2022/11/09 05:37:00;;;;;;;0.00;0.00;;;;;;;;;;5075033;28;20053;-85
2022/11/09 05:39:26;;;;;;;0.00;0.00;;;;;;;;;;5074923;28;20055;-85
2022/11/09 05:41:52;;;;;;;0.00;0.00;;;;;;;;;;5075227;28;20039;-85
2022/11/09 05:44:18;;;;;;;0.00;0.00;;;;;;;;;;5074758;28;20401;-84
2022/11/09 05:46:44;;;;;;;0.00;0.00;;;;;;;;;;5075086;28;20124;-85
2022/11/09 05:49:10;;;;;;;0.10;0.00;;;;;;;;;;5074658;28;20402;-85
2022/11/09 05:51:36;;;;;;;0.00;0.00;;;;;;;;;;5075277;28;20127;-85
2022/11/09 05:54:02;;;;;;;0.00;0.00;;;;;;;;;;5075041;28;20044;-84
2022/11/09 05:56:28;;;;;;;0.00;0.00;;;;;;;;;;5075235;28;20054;-85
2022/11/09 05:58:54;;;;;;;0.00;0.00;;;;;;;;;;5074751;28;20503;-85
2022/11/09 06:01:20;;;;;;;0.00;0.00;;;;;;;;;;5074952;28;20048;-87
2022/11/09 06:03:46;;;;;;;0.00;0.00;;;;;;;;;;5074689;28;20047;-85
2022/11/09 06:06:13;;;;;;;0.00;0.00;;;;;;;;;;5074952;28;20043;-85
2022/11/09 06:08:40;;;;;;;0.00;0.00;;;;;;;;;;5074732;28;20554;-84
2022/11/09 06:11:07;;;;;;;0.00;0.00;;;;;;;;;;5074762;28;20046;-84
2022/11/09 06:13:33;;;;;;;0.00;0.00;;;;;;;;;;5075003;28;20219;-84
2022/11/09 06:16:00;;;;;;;0.00;0.00;;;;;;;;;;5074687;28;20059;-84
2022/11/09 06:18:28;;;;;;;0.00;0.00;;;;;;;;;;5074665;28;20036;-84
2022/11/09 06:20:54;;;;;;;0.00;0.00;;;;;;;;;;5074420;28;20122;-85
2022/11/09 06:23:24;;;;;;;0.00;0.00;;;;;;;;;;5091537;28;20089;-84
2022/11/09 06:25:51;;;;;;;0.00;0.00;;;;;;;;;;5074535;28;20454;-85
2022/11/09 06:28:17;;;;;;;0.00;0.00;;;;;;;;;;5074559;28;20040;-85
2022/11/09 06:30:43;;;;;;;0.00;0.00;;;;;;;;;;5074371;28;20391;-85
2022/11/09 06:33:09;;;;;;;0.00;0.00;;;;;;;;;;5074973;28;20040;-84
2022/11/09 06:35:35;;;;;;;0.00;0.00;;;;;;;;;;5074594;28;20047;-84
2022/11/09 06:38:01;;;;;;;0.00;0.00;;;;;;;;;;5074307;28;20064;-84
2022/11/09 06:40:27;;;;;;;0.00;0.00;;;;;;;;;;5074114;28;20054;-84
2022/11/09 06:42:56;;;;;;;0.00;0.00;;;;;;;;;;5076334;28;20526;-84
2022/11/09 06:45:22;;;;;;;0.00;0.00;;;;;;;;;;5078040;28;20538;-84
2022/11/09 06:47:48;;;;;;;0.00;0.00;;;;;;;;;;5078169;28;20100;-85
2022/11/09 06:50:14;;;;;;;0.00;0.00;;;;;;;;;;5078057;28;20371;-86
2022/11/09 06:52:40;;;;;;;0.00;0.00;;;;;;;;;;5096686;28;20040;-83
2022/11/09 06:55:07;;;;;;;0.00;0.00;;;;;;;;;;5077963;28;20243;-83
2022/11/09 06:57:33;;;;;;;0.00;0.00;;;;;;;;;;5078169;28;20125;-83
2022/11/09 06:59:59;;;;;;;0.00;0.00;;;;;;;;;;5096072;28;20086;-83
2022/11/09 07:02:25;;;;;;;0.00;0.00;;;;;;;;;;5094916;28;20040;-83
2022/11/09 07:04:52;;;;;;;0.00;0.00;;;;;;;;;;5094336;28;20476;-85
2022/11/09 07:07:18;;;;;;;0.00;0.00;;;;;;;;;;5077612;28;20047;-84
2022/11/09 07:09:44;;;;;;;0.00;0.00;;;;;;;;;;5077344;28;20036;-82
2022/11/09 07:12:10;;;;;;;0.00;0.00;;;;;;;;;;5066362;28;20076;-83
2022/11/09 07:14:36;;;;;;;0.10;0.08;;;;;;;;;;5075297;28;20105;-85
2022/11/09 07:17:02;;;;;;;0.00;0.00;;;;;;;;;;5057478;28;20044;-87
2022/11/09 07:19:28;;;;;;;0.03;0.00;;;;;;;;;;5057231;28;20125;-82
2022/11/09 07:21:55;;;;;;;0.00;0.00;;;;;;;;;;5092283;28;20048;-83
2022/11/09 07:24:21;;;;;;;0.00;0.00;;;;;;;;;;5095336;28;20127;-83
2022/11/09 07:26:47;;;;;;;0.00;0.00;;;;;;;;;;5095150;28;20040;-83
2022/11/09 07:29:13;;;;;;;0.00;0.00;;;;;;;;;;5095228;28;20465;-82
2022/11/09 07:31:39;;;;;;;0.00;0.00;;;;;;;;;;5076832;28;20044;-82
2022/11/09 07:34:05;;;;;;;0.00;0.00;;;;;;;;;;5077359;28;20098;-82
2022/11/09 07:36:32;;;;;;;0.00;0.00;;;;;;;;;;5076669;28;20153;-83
2022/11/09 07:38:58;;;;;;;0.00;0.00;;;;;;;;;;5077005;28;20048;-83
2022/11/09 07:41:24;;;;;;;0.00;0.00;;;;;;;;;;5094677;28;20139;-82
2022/11/09 07:43:51;;;;;;;0.00;0.00;;;;;;;;;;5076719;28;20050;-83
2022/11/09 07:46:17;;;;;;;0.00;0.00;;;;;;;;;;5095042;28;20040;-83
2022/11/09 07:48:43;;;;;;;0.00;0.00;;;;;;;;;;5076606;28;20040;-84
2022/11/09 07:51:10;;;;;;;0.00;0.00;;;;;;;;;;5076532;28;20522;-83
2022/11/09 07:53:36;;;;;;;0.00;0.00;;;;;;;;;;5076657;28;20062;-82
2022/11/09 07:56:03;;;;;;;0.00;0.00;;;;;;;;;;5076084;28;20047;-83
2022/11/09 07:58:29;;;;;;;0.00;0.00;;;;;;;;;;5076453;28;20510;-83
2022/11/09 08:00:55;;;;;;;0.00;0.00;;;;;;;;;;5076669;28;20040;-83
2022/11/09 08:03:23;;;;;;;0.00;0.00;;;;;;;;;;5076584;28;20048;-82
2022/11/09 08:05:49;;;;;;;0.00;0.00;;;;;;;;;;5076024;28;20170;-83
2022/11/09 08:08:15;;;;;;;0.00;0.00;;;;;;;;;;5094495;28;20072;-82
2022/11/09 08:10:42;;;;;;;0.00;0.00;;;;;;;;;;5076308;28;20084;-83
2022/11/09 08:13:12;;;;;;;0.00;0.00;;;;;;;;;;5076300;28;20120;-82
2022/11/09 08:15:38;;;;;;;0.00;0.00;;;;;;;;;;5076209;28;20139;-83
2022/11/09 08:18:06;;;;;;;0.00;0.00;;;;;;;;;;5076437;28;20552;-83
2022/11/09 08:20:32;;;;;;;0.00;0.00;;;;;;;;;;5073696;28;20483;-83
2022/11/09 08:23:00;;;;;;;0.00;0.00;;;;;;;;;;5093265;28;20075;-83
2022/11/09 08:25:26;;;;;;;0.00;0.00;;;;;;;;;;5092919;28;20036;-83
2022/11/09 08:27:52;;;;;;;0.00;0.00;;;;;;;;;;5093086;28;20089;-83
2022/11/09 08:30:20;;;;;;;0.00;0.00;;;;;;;;;;5092904;28;20040;-84
2022/11/09 08:32:47;;;;;;;0.00;0.00;;;;;;;;;;5094589;28;20044;-84
2022/11/09 08:35:16;;;;;;;0.00;0.00;;;;;;;;;;5092659;28;20043;-84
2022/11/09 08:37:46;;;;;;;0.00;0.00;;;;;;;;;;5092836;28;20071;-83
2022/11/09 08:40:12;;;;;;;0.00;0.00;;;;;;;;;;5092982;28;20044;-84
2022/11/09 08:42:38;;;;;;;0.00;0.00;;;;;;;;;;5092981;28;20055;-83
2022/11/09 08:45:05;;;;;;;0.00;0.00;;;;;;;;;;5092697;28;20079;-84
2022/11/09 08:47:31;;;;;;;0.00;0.00;;;;;;;;;;5092950;28;20040;-83
2022/11/09 08:49:57;;;;;;;0.00;0.00;;;;;;;;;;5092582;28;20051;-84
2022/11/09 08:52:23;;;;;;;0.00;0.00;;;;;;;;;;5092518;28;20039;-83
2022/11/09 08:54:49;;;;;;;0.00;0.00;;;;;;;;;;5092951;28;20085;-86
2022/11/09 08:57:16;;;;;;;0.00;0.00;;;;;;;;;;5092590;28;20044;-85
2022/11/09 08:59:42;;;;;;;0.00;0.00;;;;;;;;;;5092488;28;20356;-85
2022/11/09 09:02:09;;;;;;;0.00;0.00;;;;;;;;;;5075422;28;20078;-85
2022/11/09 09:04:35;;;;;;;0.00;0.00;;;;;;;;;;5092446;28;20040;-85
2022/11/09 09:07:01;;;;;;;0.00;0.00;;;;;;;;;;5091602;28;20050;-81
2022/11/09 09:09:27;;;;;;;0.00;0.00;;;;;;;;;;5092448;28;20498;-82
2022/11/09 09:11:53;;;;;;;0.00;0.00;;;;;;;;;;5092152;28;20097;-85
2022/11/09 09:14:19;;;;;;;0.00;0.00;;;;;;;;;;5075476;28;20044;-84
2022/11/09 09:16:45;;;;;;;0.00;0.00;;;;;;;;;;5092136;28;20093;-85
2022/11/09 09:19:11;;;;;;;0.00;0.00;;;;;;;;;;5092207;28;20040;-85
2022/11/09 09:21:37;;;;;;;0.00;0.00;;;;;;;;;;5093302;28;20174;-85
2022/11/09 09:24:03;;;;;;;0.00;0.00;;;;;;;;;;5075156;28;20183;-85
2022/11/09 09:26:29;;;;;;;0.00;0.00;;;;;;;;;;5091990;28;20032;-82
2022/11/09 09:28:55;;;;;;;0.00;0.00;;;;;;;;;;5092091;28;20065;-86
2022/11/09 09:31:21;;;;;;;0.00;0.00;;;;;;;;;;5091962;28;20040;-86
2022/11/09 09:33:47;;;;;;;0.00;0.00;;;;;;;;;;5092064;28;20048;-86
2022/11/09 09:36:17;;;;;;;0.00;0.00;;;;;;;;;;5074911;28;20075;-86
2022/11/09 09:38:43;;;;;;;0.00;0.00;;;;;;;;;;5091957;28;20094;-86
2022/11/09 09:41:16;;;;;;;0.00;0.00;;;;;;;;;;5091734;28;20040;-86
2022/11/09 09:43:46;;;;;;;0.00;0.00;;;;;;;;;;5091980;28;20380;-86
2022/11/09 09:46:15;;;;;;;0.00;0.00;;;;;;;;;;5092049;28;20455;-86
2022/11/09 09:48:50;;;;;;;0.00;0.00;;;;;;;;;;5091767;28;20482;-86
2022/11/09 09:51:19;;;;;;;0.00;0.00;;;;;;;;;;5091752;28;20040;-86
2022/11/09 09:53:49;;;;;;;0.00;0.00;;;;;;;;;;5091852;28;20035;-86
2022/11/09 09:56:21;;;;;;;0.00;0.00;;;;;;;;;;5091598;28;20059;-85
2022/11/09 09:58:51;;;;;;;0.00;0.00;;;;;;;;;;5091757;28;20044;-87
2022/11/09 10:01:23;;;;;;;0.00;0.00;;;;;;;;;;5091510;28;20047;-86
2022/11/09 10:03:49;;;;;;;0.00;0.00;;;;;;;;;;5091705;28;20040;-86
2022/11/09 10:06:18;;;;;;;0.00;0.00;;;;;;;;;;5091516;28;20165;-86
2022/11/09 10:09:01;;;;;;;0.00;0.00;;;;;;;;;;5092055;28;20467;-86
2022/11/09 10:11:40;;;;;;;0.00;0.00;;;;;;;;;;5091395;28;20495;-86
2022/11/09 10:14:24;;;;;;;0.00;0.00;;;;;;;;;;5091798;28;20067;-86
2022/11/09 10:17:04;;;;;;;0.00;0.00;;;;;;;;;;5091406;28;20047;-86
2022/11/09 10:19:30;;;;;;;0.00;0.00;;;;;;;;;;5095940;28;20475;-86
2022/11/09 10:21:55;;;;;;;0.00;0.00;;;;;;;;;;5095431;28;20506;-87
2022/11/09 10:24:31;;;;;;;0.00;0.00;;;;;;;;;;5078732;28;20468;-86
2022/11/09 10:27:00;;;;;;;0.22;0.00;;;;;;;;;;5095218;28;20122;-86
2022/11/09 10:29:26;;;;;;;0.25;0.17;;;;;;;;;;5095790;28;20084;-87
2022/11/09 10:31:55;;;;;;;0.00;0.00;;;;;;;;;;5095332;28;20071;-87
2022/11/09 10:34:27;;;;;;;0.00;0.00;;;;;;;;;;5095911;28;20376;-87
2022/11/09 10:37:03;;;;;;;0.00;0.00;;;;;;;;;;5095227;28;20058;-87
2022/11/09 10:39:35;;;;;;;0.00;0.00;;;;;;;;;;5095421;28;20066;-87
2022/11/09 10:42:01;;;;;;;0.00;0.00;;;;;;;;;;5094974;28;20051;-87
2022/11/09 10:44:27;;;;;;;0.00;0.00;;;;;;;;;;5095300;28;20403;-88
2022/11/09 10:47:12;;;;;;;0.00;0.00;;;;;;;;;;5095133;28;20063;-87
2022/11/09 10:49:38;;;;;;;0.00;0.00;;;;;;;;;;5094981;28;20036;-87
2022/11/09 10:52:05;;;;;;;0.00;0.00;;;;;;;;;;5078199;28;20127;-88
2022/11/09 10:54:34;;;;;;;0.00;0.00;;;;;;;;;;5095127;28;20384;-87
2022/11/09 10:57:02;;;;;;;0.00;0.00;;;;;;;;;;5078116;28;20054;-86
2022/11/09 10:59:44;;;;;;;0.00;0.00;;;;;;;;;;5094787;28;20036;-87
2022/11/09 11:02:25;;;;;;;0.00;0.00;;;;;;;;;;5077972;28;20058;-86
2022/11/09 11:04:52;;;;;;;0.00;0.00;;;;;;;;;;5095061;28;20507;-86
2022/11/09 11:07:21;;;;;;;0.00;0.00;;;;;;;;;;5094950;28;20148;-86
2022/11/09 11:09:47;;;;;;;0.00;0.00;;;;;;;;;;5078089;28;20404;-88
2022/11/09 11:12:19;;;;;;;0.00;0.00;;;;;;;;;;5094512;28;20068;-88
2022/11/09 11:14:45;;;;;;;0.00;0.00;;;;;;;;;;5077882;28;20487;-88
2022/11/09 11:17:25;;;;;;;0.00;0.00;;;;;;;;;;5094753;28;20048;-87
2022/11/09 11:19:52;;;;;;;0.00;0.00;;;;;;;;;;5077958;28;20413;-89
2022/11/09 11:22:23;;;;;;;0.00;0.00;;;;;;;;;;5078417;28;20461;-87
2022/11/09 11:24:54;;;;;;;0.00;0.00;;;;;;;;;;5077821;28;20040;-88
2022/11/09 11:27:23;;;;;;;0.00;0.00;;;;;;;;;;5077463;28;20036;-87
2022/11/09 11:30:12;;;;;;;0.00;0.00;;;;;;;;;;5093199;28;20126;-88
2022/11/09 11:32:38;;;;;;;0.00;0.00;;;;;;;;;;5066885;28;20445;-87
2022/11/09 11:35:05;;;;;;;0.00;0.00;;;;;;;;;;5094423;28;20040;-86
2022/11/09 11:37:34;;;;;;;0.00;0.00;;;;;;;;;;5077030;28;20135;-86
2022/11/09 11:40:05;;;;;;;0.00;0.00;;;;;;;;;;5094378;28;20404;-87
2022/11/09 11:42:41;;;;;;;0.00;0.00;;;;;;;;;;5090462;28;20045;-87
2022/11/09 11:45:23;;;;;;;0.00;0.00;;;;;;;;;;5077128;28;20157;-88
2022/11/09 11:48:08;;;;;;;0.00;0.00;;;;;;;;;;5093924;28;20032;-88
2022/11/09 11:50:33;;;;;;;0.00;0.00;;;;;;;;;;5094370;28;20486;-88
2022/11/09 11:53:05;;;;;;;0.00;0.00;;;;;;;;;;5076837;28;20093;-89
2022/11/09 11:55:50;;;;;;;0.00;0.00;;;;;;;;;;5093941;28;20046;-87
2022/11/09 11:58:42;;;;;;;0.00;0.00;;;;;;;;;;5093652;28;20123;-87
2022/11/09 12:01:14;;;;;;;0.00;0.00;;;;;;;;;;5047129;28;20051;-87
2022/11/09 12:03:49;;;;;;;0.00;0.00;;;;;;;;;;5093448;28;20040;-87
2022/11/09 12:06:30;;;;;;;0.00;0.00;;;;;;;;;;5093840;28;20048;-87
2022/11/09 12:09:15;;;;;;;0.00;0.00;;;;;;;;;;5093362;28;20071;-87
2022/11/09 12:11:59;;;;;;;0.00;0.00;;;;;;;;;;5093900;28;20040;-88
2022/11/09 12:14:29;;;;;;;0.00;0.00;;;;;;;;;;5076732;28;20040;-87
2022/11/09 12:17:13;;;;;;;0.00;0.00;;;;;;;;;;5093520;28;20169;-88
2022/11/09 12:19:48;;;;;;;0.00;0.00;;;;;;;;;;5076643;28;20462;-88
2022/11/09 12:22:22;;;;;;;0.00;0.00;;;;;;;;;;5093513;28;20506;-87
2022/11/09 12:24:57;;;;;;;0.00;0.00;;;;;;;;;;5093499;28;20067;-86
2022/11/09 12:27:33;;;;;;;0.00;0.00;;;;;;;;;;5093388;28;20048;-87
2022/11/09 12:30:06;;;;;;;0.00;0.00;;;;;;;;;;5093251;28;20484;-88
2022/11/09 12:32:51;;;;;;;0.00;0.00;;;;;;;;;;5076111;28;20408;-87
2022/11/09 12:35:22;;;;;;;0.00;0.00;;;;;;;;;;5076172;28;20049;-87
2022/11/09 12:37:55;;;;;;;0.00;0.00;;;;;;;;;;5092806;28;20108;-87
2022/11/09 12:40:22;;;;;;;0.00;0.00;;;;;;;;;;5076252;28;20059;-87
2022/11/09 12:43:02;;;;;;;0.20;0.10;;;;;;;;;;5092966;28;20413;-88
2022/11/09 12:45:35;;;;;;;0.00;0.00;;;;;;;;;;5093058;28;20051;-87
2022/11/09 12:48:06;;;;;;;0.00;0.00;;;;;;;;;;5075912;28;20036;-88
2022/11/09 12:50:32;;;;;;;0.00;0.00;;;;;;;;;;5093066;28;20048;-87
2022/11/09 12:52:59;;;;;;;0.00;0.00;;;;;;;;;;5075803;28;20047;-87
2022/11/09 12:55:51;;;;;;;0.00;0.00;;;;;;;;;;5092926;28;20040;-88
2022/11/09 12:58:22;;;;;;;0.00;0.00;;;;;;;;;;5056098;28;20130;-88
2022/11/09 13:00:49;;;;;;;0.00;0.00;;;;;;;;;;5092879;28;20044;-88
2022/11/09 13:03:19;;;;;;;0.00;0.00;;;;;;;;;;5092442;28;20403;-87
2022/11/09 13:05:47;;;;;;;0.00;0.00;;;;;;;;;;5092830;28;20036;-88
2022/11/09 13:08:23;;;;;;;0.00;0.00;;;;;;;;;;5075572;28;20510;-88
2022/11/09 13:11:06;;;;;;;0.00;0.00;;;;;;;;;;5092519;28;20043;-88
2022/11/09 13:13:32;;;;;;;0.15;0.00;;;;;;;;;;5092205;28;20040;-87
2022/11/09 13:16:07;;;;;;;0.00;0.00;;;;;;;;;;5092458;28;20040;-88
2022/11/09 13:18:36;;;;;;;0.00;0.00;;;;;;;;;;5092513;28;20552;-87
2022/11/09 13:21:21;;;;;;;0.00;0.00;;;;;;;;;;5075380;28;20541;-88
2022/11/09 13:23:47;;;;;;;0.00;0.00;;;;;;;;;;5092213;28;20044;-89
2022/11/09 13:26:32;;;;;;;0.00;0.00;;;;;;;;;;5092858;28;20117;-87
2022/11/09 13:29:16;;;;;;;0.00;0.00;;;;;;;;;;5091983;28;20081;-88
2022/11/09 13:32:03;;;;;;;0.00;0.00;;;;;;;;;;5092376;28;20127;-88
2022/11/09 13:34:38;;;;;;;0.00;0.00;;;;;;;;;;5075629;28;20097;-88
2022/11/09 13:37:23;;;;;;;0.00;0.00;;;;;;;;;;5075465;28;20060;-87
2022/11/09 13:39:49;;;;;;;0.00;0.00;;;;;;;;;;5092005;28;20040;-87
2022/11/09 13:42:32;;;;;;;0.00;0.00;;;;;;;;;;5092010;28;20039;-88
2022/11/09 13:45:36;;;;;;;0.00;0.00;;;;;;;;;;5091935;28;20127;-89
2022/11/09 13:48:04;;;;;;;0.00;0.00;;;;;;;;;;4994800;28;20041;-88
2022/11/09 13:50:31;;;;;;;0.00;0.00;;;;;;;;;;4994840;28;20553;-88
2022/11/09 13:52:58;;;;;;;0.00;0.00;;;;;;;;;;5029589;28;20055;-87
2022/11/09 13:55:25;;;;;;;0.00;0.00;;;;;;;;;;5075068;28;20040;-88
2022/11/09 13:57:56;;;;;;;0.30;0.00;;;;;;;;;;5074863;28;20464;-87
2022/11/09 14:00:24;;;;;;;0.00;0.00;;;;;;;;;;5074773;28;20044;-88
2022/11/09 14:03:01;;;;;;;0.00;0.00;;;;;;;;;;5074977;28;20407;-88
2022/11/09 14:05:38;;;;;;;0.00;0.00;;;;;;;;;;5074878;28;20154;-87
2022/11/09 14:08:04;;;;;;;0.05;0.00;;;;;;;;;;5075210;28;20047;-87
2022/11/09 14:10:35;;;;;;;0.00;0.00;;;;;;;;;;5075009;28;20036;-87
2022/11/09 14:13:15;;;;;;;0.00;0.00;;;;;;;;;;5074930;28;20040;-87
2022/11/09 14:15:54;;;;;;;0.00;0.00;;;;;;;;;;5075013;28;20082;-89
2022/11/09 14:18:27;;;;;;;0.00;0.00;;;;;;;;;;5074695;28;20036;-85
2022/11/09 14:21:01;;;;;;;0.00;0.00;;;;;;;;;;5091763;28;20039;-86
2022/11/09 14:23:29;;;;;;;0.00;0.00;;;;;;;;;;5075642;28;20044;-86
2022/11/09 14:25:55;;;;;;;0.10;0.05;;;;;;;;;;5074715;28;20123;-85
2022/11/09 14:28:29;;;;;;;0.00;0.00;;;;;;;;;;5074635;28;20032;-85
2022/11/09 14:30:55;;;;;;;0.00;0.00;;;;;;;;;;5074487;28;20044;-86
2022/11/09 14:33:33;;;;;;;0.00;0.00;;;;;;;;;;5074936;28;20055;-86
2022/11/09 14:36:00;;;;;;;0.00;0.00;;;;;;;;;;5091443;28;20046;-87
2022/11/09 14:38:29;;;;;;;0.00;0.00;;;;;;;;;;5071184;28;20051;-87
2022/11/09 14:40:55;;;;;;;0.00;0.00;;;;;;;;;;5071136;28;20048;-90
2022/11/09 14:43:27;;;;;;;0.00;0.00;;;;;;;;;;5071636;28;20262;-86
2022/11/09 14:45:54;;;;;;;0.00;0.00;;;;;;;;;;5071301;28;20041;-89
2022/11/09 14:48:21;;;;;;;0.00;0.00;;;;;;;;;;5055162;28;20391;-89
2022/11/09 14:50:47;;;;;;;0.00;0.00;;;;;;;;;;5072647;28;20476;-88
2022/11/09 14:53:23;;;;;;;0.00;0.00;;;;;;;;;;5054767;28;20393;-88
2022/11/09 14:55:49;;;;;;;0.00;0.00;;;;;;;;;;5097304;28;20032;-86